sensor_id;sensor_type;location;lat;lon;timestamp;P1;durP1;ratioP1;P2;durP2;ratioP2
56567;SDS011;42456;49.956;20.004;2024-01-07T00:01:29;16.50;;;7.60;;
56567;SDS011;42456;49.956;20.004;2024-01-07T00:03:57;19.70;;;8.30;;
56567;SDS011;42456;49.956;20.004;2024-01-07T00:06:24;18.20;;;8.10;;
56567;SDS011;42456;49.956;20.004;2024-01-07T00:08:51;19.20;;;8.70;;
56567;SDS011;42456;49.956;20.004;2024-01-07T00:11:18;21.60;;;8.60;;
56567;SDS011;42456;49.956;20.004;2024-01-07T00:13:45;19.30;;;8.70;;
56567;SDS011;42456;49.956;20.004;2024-01-07T00:16:13;15.60;;;7.80;;
56567;SDS011;42456;49.956;20.004;2024-01-07T00:18:40;19.80;;;8.10;;
56567;SDS011;42456;49.956;20.004;2024-01-07T00:21:08;17.30;;;8.00;;
56567;SDS011;42456;49.956;20.004;2024-01-07T00:23:35;17.50;;;7.70;;
56567;SDS011;42456;49.956;20.004;2024-01-07T00:26:03;19.70;;;7.80;;
56567;SDS011;42456;49.956;20.004;2024-01-07T00:28:30;18.80;;;8.00;;
56567;SDS011;42456;49.956;20.004;2024-01-07T00:30:57;19.00;;;8.20;;
56567;SDS011;42456;49.956;20.004;2024-01-07T00:33:24;17.50;;;7.70;;
56567;SDS011;42456;49.956;20.004;2024-01-07T00:35:51;16.90;;;7.10;;
56567;SDS011;42456;49.956;20.004;2024-01-07T00:38:18;19.60;;;8.60;;
56567;SDS011;42456;49.956;20.004;2024-01-07T00:40:45;17.40;;;7.50;;
56567;SDS011;42456;49.956;20.004;2024-01-07T00:43:12;17.70;;;7.80;;
56567;SDS011;42456;49.956;20.004;2024-01-07T00:45:39;17.60;;;8.10;;
56567;SDS011;42456;49.956;20.004;2024-01-07T00:48:07;17.10;;;7.50;;
56567;SDS011;42456;49.956;20.004;2024-01-07T00:50:34;20.10;;;8.50;;
56567;SDS011;42456;49.956;20.004;2024-01-07T00:53:01;17.30;;;8.00;;
56567;SDS011;42456;49.956;20.004;2024-01-07T00:55:28;16.00;;;7.40;;
56567;SDS011;42456;49.956;20.004;2024-01-07T00:57:55;18.10;;;7.50;;
56567;SDS011;42456;49.956;20.004;2024-01-07T01:00:22;16.40;;;7.50;;
56567;SDS011;42456;49.956;20.004;2024-01-07T01:02:50;16.00;;;7.00;;
56567;SDS011;42456;49.956;20.004;2024-01-07T01:05:17;15.50;;;7.20;;
56567;SDS011;42456;49.956;20.004;2024-01-07T01:07:44;15.40;;;7.00;;
56567;SDS011;42456;49.956;20.004;2024-01-07T01:10:11;19.40;;;8.70;;
56567;SDS011;42456;49.956;20.004;2024-01-07T01:12:39;16.70;;;7.80;;
56567;SDS011;42456;49.956;20.004;2024-01-07T01:15:06;17.50;;;7.90;;
56567;SDS011;42456;49.956;20.004;2024-01-07T01:17:34;17.60;;;7.80;;
56567;SDS011;42456;49.956;20.004;2024-01-07T01:20:01;16.00;;;6.90;;
56567;SDS011;42456;49.956;20.004;2024-01-07T01:22:29;18.10;;;7.40;;
56567;SDS011;42456;49.956;20.004;2024-01-07T01:24:57;13.20;;;6.10;;
56567;SDS011;42456;49.956;20.004;2024-01-07T01:27:24;14.80;;;6.60;;
56567;SDS011;42456;49.956;20.004;2024-01-07T01:29:52;15.90;;;8.00;;
56567;SDS011;42456;49.956;20.004;2024-01-07T01:32:19;14.30;;;6.50;;
56567;SDS011;42456;49.956;20.004;2024-01-07T01:34:46;18.00;;;7.80;;
56567;SDS011;42456;49.956;20.004;2024-01-07T01:37:13;15.70;;;7.10;;
56567;SDS011;42456;49.956;20.004;2024-01-07T01:39:40;17.20;;;7.40;;
56567;SDS011;42456;49.956;20.004;2024-01-07T01:42:08;18.20;;;8.30;;
56567;SDS011;42456;49.956;20.004;2024-01-07T01:44:35;15.40;;;6.40;;
56567;SDS011;42456;49.956;20.004;2024-01-07T01:47:03;16.90;;;7.30;;
56567;SDS011;42456;49.956;20.004;2024-01-07T01:49:32;14.70;;;6.30;;
56567;SDS011;42456;49.956;20.004;2024-01-07T01:51:59;16.50;;;7.10;;
56567;SDS011;42456;49.956;20.004;2024-01-07T01:54:26;15.70;;;6.90;;
56567;SDS011;42456;49.956;20.004;2024-01-07T01:57:03;14.00;;;6.50;;
56567;SDS011;42456;49.956;20.004;2024-01-07T01:59:33;16.30;;;6.60;;
56567;SDS011;42456;49.956;20.004;2024-01-07T02:02:01;13.80;;;6.40;;
56567;SDS011;42456;49.956;20.004;2024-01-07T02:04:28;15.30;;;6.70;;
56567;SDS011;42456;49.956;20.004;2024-01-07T02:06:55;17.30;;;6.30;;
56567;SDS011;42456;49.956;20.004;2024-01-07T02:09:22;16.70;;;6.80;;
56567;SDS011;42456;49.956;20.004;2024-01-07T02:14:31;16.90;;;7.00;;
56567;SDS011;42456;49.956;20.004;2024-01-07T02:16:58;15.10;;;6.30;;
56567;SDS011;42456;49.956;20.004;2024-01-07T02:19:26;14.60;;;6.80;;
56567;SDS011;42456;49.956;20.004;2024-01-07T02:21:53;15.00;;;6.20;;
56567;SDS011;42456;49.956;20.004;2024-01-07T02:24:20;16.20;;;6.80;;
56567;SDS011;42456;49.956;20.004;2024-01-07T02:26:47;14.10;;;6.00;;
56567;SDS011;42456;49.956;20.004;2024-01-07T02:29:14;12.70;;;5.40;;
56567;SDS011;42456;49.956;20.004;2024-01-07T02:31:41;15.10;;;6.30;;
56567;SDS011;42456;49.956;20.004;2024-01-07T02:34:09;16.30;;;6.20;;
56567;SDS011;42456;49.956;20.004;2024-01-07T02:36:37;12.00;;;5.50;;
56567;SDS011;42456;49.956;20.004;2024-01-07T02:39:04;14.90;;;6.20;;
56567;SDS011;42456;49.956;20.004;2024-01-07T02:41:31;11.70;;;5.20;;
56567;SDS011;42456;49.956;20.004;2024-01-07T02:43:58;13.30;;;5.80;;
56567;SDS011;42456;49.956;20.004;2024-01-07T02:46:25;11.30;;;5.00;;
56567;SDS011;42456;49.956;20.004;2024-01-07T02:48:52;14.90;;;6.00;;
56567;SDS011;42456;49.956;20.004;2024-01-07T02:51:20;13.20;;;5.00;;
56567;SDS011;42456;49.956;20.004;2024-01-07T02:53:47;12.30;;;5.60;;
56567;SDS011;42456;49.956;20.004;2024-01-07T02:56:14;15.90;;;6.20;;
56567;SDS011;42456;49.956;20.004;2024-01-07T02:58:41;15.40;;;5.80;;
56567;SDS011;42456;49.956;20.004;2024-01-07T03:01:08;14.00;;;5.80;;
56567;SDS011;42456;49.956;20.004;2024-01-07T03:03:56;17.10;;;5.80;;
56567;SDS011;42456;49.956;20.004;2024-01-07T03:06:28;13.80;;;5.80;;
56567;SDS011;42456;49.956;20.004;2024-01-07T03:08:55;12.00;;;4.80;;
56567;SDS011;42456;49.956;20.004;2024-01-07T03:11:22;13.50;;;5.70;;
56567;SDS011;42456;49.956;20.004;2024-01-07T03:13:49;13.20;;;5.50;;
56567;SDS011;42456;49.956;20.004;2024-01-07T03:16:20;9.60;;;4.70;;
56567;SDS011;42456;49.956;20.004;2024-01-07T03:18:49;13.80;;;5.50;;
56567;SDS011;42456;49.956;20.004;2024-01-07T03:21:20;11.10;;;5.00;;
56567;SDS011;42456;49.956;20.004;2024-01-07T03:23:50;11.80;;;5.10;;
56567;SDS011;42456;49.956;20.004;2024-01-07T03:26:18;12.10;;;5.30;;
56567;SDS011;42456;49.956;20.004;2024-01-07T03:28:46;12.80;;;5.20;;
56567;SDS011;42456;49.956;20.004;2024-01-07T03:31:14;11.40;;;5.00;;
56567;SDS011;42456;49.956;20.004;2024-01-07T03:33:45;13.40;;;5.50;;
56567;SDS011;42456;49.956;20.004;2024-01-07T03:36:13;14.20;;;5.50;;
56567;SDS011;42456;49.956;20.004;2024-01-07T03:38:40;12.80;;;5.20;;
56567;SDS011;42456;49.956;20.004;2024-01-07T03:41:08;12.50;;;5.00;;
56567;SDS011;42456;49.956;20.004;2024-01-07T03:43:35;11.20;;;4.50;;
56567;SDS011;42456;49.956;20.004;2024-01-07T03:46:02;11.30;;;4.90;;
56567;SDS011;42456;49.956;20.004;2024-01-07T03:48:30;14.30;;;5.30;;
56567;SDS011;42456;49.956;20.004;2024-01-07T03:50:57;12.80;;;5.10;;
56567;SDS011;42456;49.956;20.004;2024-01-07T03:53:24;13.00;;;5.10;;
56567;SDS011;42456;49.956;20.004;2024-01-07T03:55:51;12.60;;;5.20;;
56567;SDS011;42456;49.956;20.004;2024-01-07T03:58:18;12.80;;;5.40;;
56567;SDS011;42456;49.956;20.004;2024-01-07T04:00:45;11.20;;;4.70;;
56567;SDS011;42456;49.956;20.004;2024-01-07T04:03:13;10.60;;;4.90;;
56567;SDS011;42456;49.956;20.004;2024-01-07T04:05:40;9.30;;;4.30;;
56567;SDS011;42456;49.956;20.004;2024-01-07T04:08:10;7.90;;;3.80;;
56567;SDS011;42456;49.956;20.004;2024-01-07T04:10:37;13.70;;;5.60;;
56567;SDS011;42456;49.956;20.004;2024-01-07T04:13:04;9.80;;;4.10;;
56567;SDS011;42456;49.956;20.004;2024-01-07T04:15:31;11.90;;;5.20;;
56567;SDS011;42456;49.956;20.004;2024-01-07T04:18:02;10.60;;;4.70;;
56567;SDS011;42456;49.956;20.004;2024-01-07T04:20:30;9.90;;;4.40;;
56567;SDS011;42456;49.956;20.004;2024-01-07T04:22:58;10.80;;;4.60;;
56567;SDS011;42456;49.956;20.004;2024-01-07T04:25:25;8.20;;;4.30;;
56567;SDS011;42456;49.956;20.004;2024-01-07T04:27:52;11.20;;;4.40;;
56567;SDS011;42456;49.956;20.004;2024-01-07T04:30:19;13.20;;;4.80;;
56567;SDS011;42456;49.956;20.004;2024-01-07T04:32:46;12.00;;;5.10;;
56567;SDS011;42456;49.956;20.004;2024-01-07T04:35:14;9.60;;;4.20;;
56567;SDS011;42456;49.956;20.004;2024-01-07T04:37:41;10.10;;;4.60;;
56567;SDS011;42456;49.956;20.004;2024-01-07T04:40:09;13.90;;;5.60;;
56567;SDS011;42456;49.956;20.004;2024-01-07T04:42:37;8.00;;;3.60;;
56567;SDS011;42456;49.956;20.004;2024-01-07T04:45:04;9.70;;;4.50;;
56567;SDS011;42456;49.956;20.004;2024-01-07T04:47:32;9.20;;;4.30;;
56567;SDS011;42456;49.956;20.004;2024-01-07T04:50:02;11.40;;;3.90;;
56567;SDS011;42456;49.956;20.004;2024-01-07T04:52:31;12.10;;;4.40;;
56567;SDS011;42456;49.956;20.004;2024-01-07T04:54:58;9.80;;;4.00;;
56567;SDS011;42456;49.956;20.004;2024-01-07T04:57:25;9.10;;;4.10;;
56567;SDS011;42456;49.956;20.004;2024-01-07T04:59:53;9.40;;;3.90;;
56567;SDS011;42456;49.956;20.004;2024-01-07T05:02:20;9.90;;;3.80;;
56567;SDS011;42456;49.956;20.004;2024-01-07T05:04:47;12.60;;;4.40;;
56567;SDS011;42456;49.956;20.004;2024-01-07T05:07:14;7.30;;;3.70;;
56567;SDS011;42456;49.956;20.004;2024-01-07T05:09:41;11.30;;;4.80;;
56567;SDS011;42456;49.956;20.004;2024-01-07T05:12:08;13.40;;;5.30;;
56567;SDS011;42456;49.956;20.004;2024-01-07T05:14:35;9.70;;;3.90;;
56567;SDS011;42456;49.956;20.004;2024-01-07T05:17:04;10.90;;;4.30;;
56567;SDS011;42456;49.956;20.004;2024-01-07T05:19:31;9.10;;;4.40;;
56567;SDS011;42456;49.956;20.004;2024-01-07T05:21:58;9.60;;;3.80;;
56567;SDS011;42456;49.956;20.004;2024-01-07T05:24:26;9.20;;;4.00;;
56567;SDS011;42456;49.956;20.004;2024-01-07T05:26:53;10.00;;;4.00;;
56567;SDS011;42456;49.956;20.004;2024-01-07T05:29:20;9.30;;;3.80;;
56567;SDS011;42456;49.956;20.004;2024-01-07T05:31:48;9.00;;;4.00;;
56567;SDS011;42456;49.956;20.004;2024-01-07T05:34:15;9.30;;;4.10;;
56567;SDS011;42456;49.956;20.004;2024-01-07T05:36:42;9.00;;;3.80;;
56567;SDS011;42456;49.956;20.004;2024-01-07T05:39:10;7.80;;;4.20;;
56567;SDS011;42456;49.956;20.004;2024-01-07T05:41:37;11.20;;;4.40;;
56567;SDS011;42456;49.956;20.004;2024-01-07T05:44:07;9.00;;;4.40;;
56567;SDS011;42456;49.956;20.004;2024-01-07T05:46:38;8.10;;;3.80;;
56567;SDS011;42456;49.956;20.004;2024-01-07T05:49:09;7.30;;;3.70;;
56567;SDS011;42456;49.956;20.004;2024-01-07T05:51:39;9.00;;;4.10;;
56567;SDS011;42456;49.956;20.004;2024-01-07T05:54:07;7.30;;;4.10;;
56567;SDS011;42456;49.956;20.004;2024-01-07T05:56:38;8.60;;;4.10;;
56567;SDS011;42456;49.956;20.004;2024-01-07T05:59:07;11.10;;;4.10;;
56567;SDS011;42456;49.956;20.004;2024-01-07T06:01:34;10.60;;;4.00;;
56567;SDS011;42456;49.956;20.004;2024-01-07T06:04:02;7.60;;;3.50;;
56567;SDS011;42456;49.956;20.004;2024-01-07T06:06:29;9.30;;;4.10;;
56567;SDS011;42456;49.956;20.004;2024-01-07T06:08:56;9.10;;;4.00;;
56567;SDS011;42456;49.956;20.004;2024-01-07T06:11:23;8.80;;;3.90;;
56567;SDS011;42456;49.956;20.004;2024-01-07T06:13:51;10.40;;;4.10;;
56567;SDS011;42456;49.956;20.004;2024-01-07T06:16:18;9.80;;;4.30;;
56567;SDS011;42456;49.956;20.004;2024-01-07T06:18:45;8.60;;;4.10;;
56567;SDS011;42456;49.956;20.004;2024-01-07T06:21:12;10.90;;;4.70;;
56567;SDS011;42456;49.956;20.004;2024-01-07T06:23:40;11.10;;;4.10;;
56567;SDS011;42456;49.956;20.004;2024-01-07T06:26:07;7.60;;;3.90;;
56567;SDS011;42456;49.956;20.004;2024-01-07T06:28:34;10.50;;;3.80;;
56567;SDS011;42456;49.956;20.004;2024-01-07T06:31:04;10.70;;;4.60;;
56567;SDS011;42456;49.956;20.004;2024-01-07T06:33:32;10.40;;;4.40;;
56567;SDS011;42456;49.956;20.004;2024-01-07T06:36:00;11.30;;;4.40;;
56567;SDS011;42456;49.956;20.004;2024-01-07T06:38:28;9.20;;;3.90;;
56567;SDS011;42456;49.956;20.004;2024-01-07T06:40:56;7.50;;;3.80;;
56567;SDS011;42456;49.956;20.004;2024-01-07T06:43:27;11.50;;;4.60;;
56567;SDS011;42456;49.956;20.004;2024-01-07T06:45:55;10.30;;;4.20;;
56567;SDS011;42456;49.956;20.004;2024-01-07T06:48:22;11.70;;;4.60;;
56567;SDS011;42456;49.956;20.004;2024-01-07T06:50:50;10.40;;;4.20;;
56567;SDS011;42456;49.956;20.004;2024-01-07T06:53:17;10.20;;;4.00;;
56567;SDS011;42456;49.956;20.004;2024-01-07T06:55:44;12.70;;;6.00;;
56567;SDS011;42456;49.956;20.004;2024-01-07T06:58:11;9.90;;;3.60;;
56567;SDS011;42456;49.956;20.004;2024-01-07T07:00:38;11.50;;;5.00;;
56567;SDS011;42456;49.956;20.004;2024-01-07T07:03:05;9.70;;;4.10;;
56567;SDS011;42456;49.956;20.004;2024-01-07T07:05:33;10.70;;;4.80;;
56567;SDS011;42456;49.956;20.004;2024-01-07T07:08:01;9.60;;;4.30;;
56567;SDS011;42456;49.956;20.004;2024-01-07T07:10:29;11.40;;;4.90;;
56567;SDS011;42456;49.956;20.004;2024-01-07T07:12:58;6.30;;;3.70;;
56567;SDS011;42456;49.956;20.004;2024-01-07T07:15:25;8.40;;;3.80;;
56567;SDS011;42456;49.956;20.004;2024-01-07T07:17:55;9.10;;;4.30;;
56567;SDS011;42456;49.956;20.004;2024-01-07T07:20:22;10.30;;;4.30;;
56567;SDS011;42456;49.956;20.004;2024-01-07T07:22:50;11.00;;;4.80;;
56567;SDS011;42456;49.956;20.004;2024-01-07T07:25:17;14.20;;;4.30;;
56567;SDS011;42456;49.956;20.004;2024-01-07T07:27:45;12.30;;;5.20;;
56567;SDS011;42456;49.956;20.004;2024-01-07T07:30:13;11.60;;;4.60;;
56567;SDS011;42456;49.956;20.004;2024-01-07T07:32:40;11.20;;;4.40;;
56567;SDS011;42456;49.956;20.004;2024-01-07T07:35:11;11.40;;;4.20;;
56567;SDS011;42456;49.956;20.004;2024-01-07T07:37:38;12.50;;;5.10;;
56567;SDS011;42456;49.956;20.004;2024-01-07T07:40:05;9.30;;;4.60;;
56567;SDS011;42456;49.956;20.004;2024-01-07T07:42:33;12.30;;;4.40;;
56567;SDS011;42456;49.956;20.004;2024-01-07T07:45:00;8.80;;;3.90;;
56567;SDS011;42456;49.956;20.004;2024-01-07T07:47:29;11.50;;;4.90;;
56567;SDS011;42456;49.956;20.004;2024-01-07T07:49:56;11.00;;;4.40;;
56567;SDS011;42456;49.956;20.004;2024-01-07T07:52:24;12.50;;;4.50;;
56567;SDS011;42456;49.956;20.004;2024-01-07T07:54:52;13.70;;;5.40;;
56567;SDS011;42456;49.956;20.004;2024-01-07T07:57:21;10.80;;;4.50;;
56567;SDS011;42456;49.956;20.004;2024-01-07T07:59:48;11.30;;;4.20;;
56567;SDS011;42456;49.956;20.004;2024-01-07T08:02:15;12.00;;;4.20;;
56567;SDS011;42456;49.956;20.004;2024-01-07T08:04:46;10.80;;;4.30;;
56567;SDS011;42456;49.956;20.004;2024-01-07T08:07:18;9.50;;;4.80;;
56567;SDS011;42456;49.956;20.004;2024-01-07T08:09:46;11.60;;;4.50;;
56567;SDS011;42456;49.956;20.004;2024-01-07T08:12:14;10.80;;;4.60;;
56567;SDS011;42456;49.956;20.004;2024-01-07T08:14:41;11.20;;;4.80;;
56567;SDS011;42456;49.956;20.004;2024-01-07T08:17:08;12.70;;;4.10;;
56567;SDS011;42456;49.956;20.004;2024-01-07T08:19:35;9.20;;;3.80;;
56567;SDS011;42456;49.956;20.004;2024-01-07T08:22:03;11.50;;;4.80;;
56567;SDS011;42456;49.956;20.004;2024-01-07T08:24:31;9.20;;;4.20;;
56567;SDS011;42456;49.956;20.004;2024-01-07T08:26:58;12.20;;;5.50;;
56567;SDS011;42456;49.956;20.004;2024-01-07T08:29:25;12.60;;;4.70;;
56567;SDS011;42456;49.956;20.004;2024-01-07T08:31:52;9.80;;;4.70;;
56567;SDS011;42456;49.956;20.004;2024-01-07T08:34:20;11.40;;;4.60;;
56567;SDS011;42456;49.956;20.004;2024-01-07T08:36:47;10.10;;;4.40;;
56567;SDS011;42456;49.956;20.004;2024-01-07T08:39:14;10.70;;;4.30;;
56567;SDS011;42456;49.956;20.004;2024-01-07T08:41:41;13.30;;;5.20;;
56567;SDS011;42456;49.956;20.004;2024-01-07T08:44:08;10.60;;;4.70;;
56567;SDS011;42456;49.956;20.004;2024-01-07T08:46:36;9.20;;;3.90;;
56567;SDS011;42456;49.956;20.004;2024-01-07T08:49:03;10.80;;;3.90;;
56567;SDS011;42456;49.956;20.004;2024-01-07T08:51:31;14.30;;;5.10;;
56567;SDS011;42456;49.956;20.004;2024-01-07T08:53:58;9.70;;;4.50;;
56567;SDS011;42456;49.956;20.004;2024-01-07T08:56:25;10.00;;;4.10;;
56567;SDS011;42456;49.956;20.004;2024-01-07T08:58:52;9.80;;;4.40;;
56567;SDS011;42456;49.956;20.004;2024-01-07T09:01:19;12.00;;;5.20;;
56567;SDS011;42456;49.956;20.004;2024-01-07T09:03:47;12.00;;;4.70;;
56567;SDS011;42456;49.956;20.004;2024-01-07T09:06:14;9.50;;;4.40;;
56567;SDS011;42456;49.956;20.004;2024-01-07T09:08:42;11.40;;;5.30;;
56567;SDS011;42456;49.956;20.004;2024-01-07T09:11:09;13.60;;;5.20;;
56567;SDS011;42456;49.956;20.004;2024-01-07T09:13:39;12.60;;;5.30;;
56567;SDS011;42456;49.956;20.004;2024-01-07T09:16:09;12.60;;;5.50;;
56567;SDS011;42456;49.956;20.004;2024-01-07T09:18:39;11.70;;;4.90;;
56567;SDS011;42456;49.956;20.004;2024-01-07T09:21:06;15.20;;;6.40;;
56567;SDS011;42456;49.956;20.004;2024-01-07T09:23:34;14.80;;;5.90;;
56567;SDS011;42456;49.956;20.004;2024-01-07T09:26:02;13.70;;;5.70;;
56567;SDS011;42456;49.956;20.004;2024-01-07T09:28:30;15.90;;;5.30;;
56567;SDS011;42456;49.956;20.004;2024-01-07T09:30:57;12.40;;;5.20;;
56567;SDS011;42456;49.956;20.004;2024-01-07T09:33:24;11.60;;;4.50;;
56567;SDS011;42456;49.956;20.004;2024-01-07T09:35:51;14.30;;;6.00;;
56567;SDS011;42456;49.956;20.004;2024-01-07T09:38:27;12.80;;;5.60;;
56567;SDS011;42456;49.956;20.004;2024-01-07T09:40:54;13.20;;;6.00;;
56567;SDS011;42456;49.956;20.004;2024-01-07T09:43:21;15.40;;;6.20;;
56567;SDS011;42456;49.956;20.004;2024-01-07T09:45:51;12.20;;;5.20;;
56567;SDS011;42456;49.956;20.004;2024-01-07T09:48:20;12.70;;;5.90;;
56567;SDS011;42456;49.956;20.004;2024-01-07T09:50:47;12.60;;;5.70;;
56567;SDS011;42456;49.956;20.004;2024-01-07T09:53:16;12.50;;;5.00;;
56567;SDS011;42456;49.956;20.004;2024-01-07T09:58:31;12.80;;;4.70;;
56567;SDS011;42456;49.956;20.004;2024-01-07T10:00:58;10.90;;;5.00;;
56567;SDS011;42456;49.956;20.004;2024-01-07T10:03:26;12.70;;;5.50;;
56567;SDS011;42456;49.956;20.004;2024-01-07T10:05:54;12.80;;;4.30;;
56567;SDS011;42456;49.956;20.004;2024-01-07T10:08:21;11.30;;;5.50;;
56567;SDS011;42456;49.956;20.004;2024-01-07T10:10:48;13.50;;;5.90;;
56567;SDS011;42456;49.956;20.004;2024-01-07T10:13:15;13.60;;;6.50;;
56567;SDS011;42456;49.956;20.004;2024-01-07T10:15:43;17.40;;;7.90;;
56567;SDS011;42456;49.956;20.004;2024-01-07T10:18:10;14.10;;;6.10;;
56567;SDS011;42456;49.956;20.004;2024-01-07T10:20:37;14.70;;;6.00;;
56567;SDS011;42456;49.956;20.004;2024-01-07T10:23:08;16.80;;;6.40;;
56567;SDS011;42456;49.956;20.004;2024-01-07T10:25:35;16.60;;;7.80;;
56567;SDS011;42456;49.956;20.004;2024-01-07T10:28:04;15.50;;;6.90;;
56567;SDS011;42456;49.956;20.004;2024-01-07T10:30:32;13.80;;;5.70;;
56567;SDS011;42456;49.956;20.004;2024-01-07T10:32:59;15.30;;;7.10;;
56567;SDS011;42456;49.956;20.004;2024-01-07T10:35:36;13.50;;;6.40;;
56567;SDS011;42456;49.956;20.004;2024-01-07T10:38:08;15.80;;;6.80;;
56567;SDS011;42456;49.956;20.004;2024-01-07T10:40:35;16.30;;;7.30;;
56567;SDS011;42456;49.956;20.004;2024-01-07T10:43:05;17.50;;;7.20;;
56567;SDS011;42456;49.956;20.004;2024-01-07T10:45:32;14.80;;;6.50;;
56567;SDS011;42456;49.956;20.004;2024-01-07T10:48:00;17.00;;;7.50;;
56567;SDS011;42456;49.956;20.004;2024-01-07T10:50:33;21.20;;;7.70;;
56567;SDS011;42456;49.956;20.004;2024-01-07T10:53:04;17.20;;;7.50;;
56567;SDS011;42456;49.956;20.004;2024-01-07T10:55:34;16.60;;;7.00;;
56567;SDS011;42456;49.956;20.004;2024-01-07T10:58:05;16.80;;;7.70;;
56567;SDS011;42456;49.956;20.004;2024-01-07T11:00:32;17.10;;;7.90;;
56567;SDS011;42456;49.956;20.004;2024-01-07T11:11:17;16.70;;;7.60;;
56567;SDS011;42456;49.956;20.004;2024-01-07T11:13:52;19.10;;;8.90;;
56567;SDS011;42456;49.956;20.004;2024-01-07T11:16:40;17.80;;;7.50;;
56567;SDS011;42456;49.956;20.004;2024-01-07T11:19:08;16.80;;;7.40;;
56567;SDS011;42456;49.956;20.004;2024-01-07T11:21:35;17.70;;;7.90;;
56567;SDS011;42456;49.956;20.004;2024-01-07T11:24:03;20.20;;;9.40;;
56567;SDS011;42456;49.956;20.004;2024-01-07T11:26:30;18.60;;;9.10;;
56567;SDS011;42456;49.956;20.004;2024-01-07T11:28:59;18.60;;;7.80;;
56567;SDS011;42456;49.956;20.004;2024-01-07T11:34:08;16.60;;;7.60;;
56567;SDS011;42456;49.956;20.004;2024-01-07T11:36:36;19.10;;;8.10;;
56567;SDS011;42456;49.956;20.004;2024-01-07T11:39:04;16.60;;;7.20;;
56567;SDS011;42456;49.956;20.004;2024-01-07T11:41:36;16.20;;;7.20;;
56567;SDS011;42456;49.956;20.004;2024-01-07T11:44:07;15.80;;;7.00;;
56567;SDS011;42456;49.956;20.004;2024-01-07T11:46:38;19.00;;;8.50;;
56567;SDS011;42456;49.956;20.004;2024-01-07T11:49:05;20.70;;;9.90;;
56567;SDS011;42456;49.956;20.004;2024-01-07T11:51:35;17.80;;;8.60;;
56567;SDS011;42456;49.956;20.004;2024-01-07T11:54:04;18.70;;;8.50;;
56567;SDS011;42456;49.956;20.004;2024-01-07T11:56:31;20.90;;;9.40;;
56567;SDS011;42456;49.956;20.004;2024-01-07T11:58:58;19.50;;;9.50;;
56567;SDS011;42456;49.956;20.004;2024-01-07T12:01:26;19.00;;;8.30;;
56567;SDS011;42456;49.956;20.004;2024-01-07T12:03:54;19.60;;;8.70;;
56567;SDS011;42456;49.956;20.004;2024-01-07T12:06:21;19.90;;;8.70;;
56567;SDS011;42456;49.956;20.004;2024-01-07T12:08:48;18.20;;;8.40;;
56567;SDS011;42456;49.956;20.004;2024-01-07T12:11:16;21.40;;;10.20;;
56567;SDS011;42456;49.956;20.004;2024-01-07T12:13:45;19.20;;;8.70;;
56567;SDS011;42456;49.956;20.004;2024-01-07T12:16:12;16.30;;;7.70;;
56567;SDS011;42456;49.956;20.004;2024-01-07T12:18:40;18.30;;;8.40;;
56567;SDS011;42456;49.956;20.004;2024-01-07T12:21:07;18.50;;;9.10;;
56567;SDS011;42456;49.956;20.004;2024-01-07T12:23:35;18.80;;;9.20;;
56567;SDS011;42456;49.956;20.004;2024-01-07T12:26:07;16.00;;;7.70;;
56567;SDS011;42456;49.956;20.004;2024-01-07T12:28:39;17.80;;;8.80;;
56567;SDS011;42456;49.956;20.004;2024-01-07T12:31:06;18.30;;;8.30;;
56567;SDS011;42456;49.956;20.004;2024-01-07T12:33:36;19.70;;;8.60;;
56567;SDS011;42456;49.956;20.004;2024-01-07T12:36:06;21.50;;;8.80;;
56567;SDS011;42456;49.956;20.004;2024-01-07T12:38:36;17.30;;;7.70;;
56567;SDS011;42456;49.956;20.004;2024-01-07T12:41:04;25.30;;;10.40;;
56567;SDS011;42456;49.956;20.004;2024-01-07T12:43:32;22.00;;;9.90;;
56567;SDS011;42456;49.956;20.004;2024-01-07T12:45:59;23.90;;;11.80;;
56567;SDS011;42456;49.956;20.004;2024-01-07T12:48:50;24.30;;;10.90;;
56567;SDS011;42456;49.956;20.004;2024-01-07T12:51:17;17.60;;;8.70;;
56567;SDS011;42456;49.956;20.004;2024-01-07T12:53:52;19.20;;;9.90;;
56567;SDS011;42456;49.956;20.004;2024-01-07T12:56:30;21.80;;;9.20;;
56567;SDS011;42456;49.956;20.004;2024-01-07T12:58:57;18.50;;;8.50;;
56567;SDS011;42456;49.956;20.004;2024-01-07T13:01:24;21.90;;;10.00;;
56567;SDS011;42456;49.956;20.004;2024-01-07T13:03:52;18.30;;;8.60;;
56567;SDS011;42456;49.956;20.004;2024-01-07T13:06:20;22.00;;;10.50;;
56567;SDS011;42456;49.956;20.004;2024-01-07T13:08:47;22.80;;;10.60;;
56567;SDS011;42456;49.956;20.004;2024-01-07T13:11:14;20.60;;;9.10;;
56567;SDS011;42456;49.956;20.004;2024-01-07T13:13:43;20.20;;;10.50;;
56567;SDS011;42456;49.956;20.004;2024-01-07T13:16:10;22.30;;;11.30;;
56567;SDS011;42456;49.956;20.004;2024-01-07T13:18:38;21.30;;;10.70;;
56567;SDS011;42456;49.956;20.004;2024-01-07T13:21:05;22.50;;;10.00;;
56567;SDS011;42456;49.956;20.004;2024-01-07T13:23:33;22.90;;;10.10;;
56567;SDS011;42456;49.956;20.004;2024-01-07T13:26:00;20.00;;;9.00;;
56567;SDS011;42456;49.956;20.004;2024-01-07T13:28:32;23.70;;;11.20;;
56567;SDS011;42456;49.956;20.004;2024-01-07T13:30:59;23.60;;;10.70;;
56567;SDS011;42456;49.956;20.004;2024-01-07T13:33:27;22.30;;;11.10;;
56567;SDS011;42456;49.956;20.004;2024-01-07T13:35:54;22.80;;;11.30;;
56567;SDS011;42456;49.956;20.004;2024-01-07T13:38:21;25.80;;;12.10;;
56567;SDS011;42456;49.956;20.004;2024-01-07T13:40:48;22.30;;;11.40;;
56567;SDS011;42456;49.956;20.004;2024-01-07T13:43:15;27.80;;;14.50;;
56567;SDS011;42456;49.956;20.004;2024-01-07T13:45:43;25.10;;;11.20;;
56567;SDS011;42456;49.956;20.004;2024-01-07T13:48:10;23.70;;;11.60;;
56567;SDS011;42456;49.956;20.004;2024-01-07T13:50:37;34.40;;;15.10;;
56567;SDS011;42456;49.956;20.004;2024-01-07T13:53:04;28.80;;;13.90;;
56567;SDS011;42456;49.956;20.004;2024-01-07T13:55:31;27.60;;;13.60;;
56567;SDS011;42456;49.956;20.004;2024-01-07T13:57:58;25.50;;;13.50;;
56567;SDS011;42456;49.956;20.004;2024-01-07T14:00:26;27.30;;;13.20;;
56567;SDS011;42456;49.956;20.004;2024-01-07T14:02:53;27.30;;;13.00;;
56567;SDS011;42456;49.956;20.004;2024-01-07T14:05:20;30.20;;;15.60;;
56567;SDS011;42456;49.956;20.004;2024-01-07T14:07:48;28.00;;;13.30;;
56567;SDS011;42456;49.956;20.004;2024-01-07T14:10:16;24.30;;;11.90;;
56567;SDS011;42456;49.956;20.004;2024-01-07T14:12:45;27.00;;;13.30;;
56567;SDS011;42456;49.956;20.004;2024-01-07T14:15:13;31.40;;;16.70;;
56567;SDS011;42456;49.956;20.004;2024-01-07T14:17:41;26.40;;;12.40;;
56567;SDS011;42456;49.956;20.004;2024-01-07T14:20:09;27.50;;;13.30;;
56567;SDS011;42456;49.956;20.004;2024-01-07T14:22:36;25.00;;;12.40;;
56567;SDS011;42456;49.956;20.004;2024-01-07T14:25:04;28.80;;;13.70;;
56567;SDS011;42456;49.956;20.004;2024-01-07T14:27:31;25.30;;;12.70;;
56567;SDS011;42456;49.956;20.004;2024-01-07T14:29:58;25.00;;;13.30;;
56567;SDS011;42456;49.956;20.004;2024-01-07T14:32:25;27.90;;;13.70;;
56567;SDS011;42456;49.956;20.004;2024-01-07T14:34:53;27.70;;;12.20;;
56567;SDS011;42456;49.956;20.004;2024-01-07T14:37:20;31.70;;;13.60;;
56567;SDS011;42456;49.956;20.004;2024-01-07T14:39:47;31.10;;;13.10;;
56567;SDS011;42456;49.956;20.004;2024-01-07T14:42:14;25.40;;;11.10;;